createdAt,value
2023-05-10T00:02:04.437Z,6.93
2023-05-10T00:04:34.318Z,6.30
2023-05-10T00:07:18.918Z,6.90
2023-05-10T00:09:48.347Z,6.83
2023-05-10T00:12:20.117Z,6.85
2023-05-10T00:14:48.243Z,6.22
2023-05-10T00:17:28.557Z,6.75
2023-05-10T00:20:00.610Z,7.18
2023-05-10T00:22:33.298Z,6.83
2023-05-10T00:25:07.168Z,6.70
2023-05-10T00:27:38.405Z,6.72
2023-05-10T00:30:10.687Z,7.10
2023-05-10T00:32:45.536Z,7.03
2023-05-10T00:35:19.187Z,6.87
2023-05-10T00:37:53.743Z,6.68
2023-05-10T00:40:23.465Z,6.15
2023-05-10T00:42:56.266Z,6.00
2023-05-10T00:45:27.786Z,6.03
2023-05-10T00:47:59.117Z,6.37
2023-05-10T00:50:31.538Z,6.40
2023-05-10T00:53:07.361Z,6.38
2023-05-10T00:55:45.942Z,6.63
2023-05-10T00:58:17.484Z,6.47
2023-05-10T01:00:51.574Z,6.23
2023-05-10T01:03:20.784Z,6.82
2023-05-10T01:05:52.230Z,6.10
2023-05-10T01:08:22.417Z,6.00
2023-05-10T01:10:50.652Z,5.82
2023-05-10T01:13:31.902Z,5.43
2023-05-10T01:16:05.141Z,5.53
2023-05-10T01:18:35.434Z,5.82
2023-05-10T01:21:17.461Z,5.50
2023-05-10T01:23:48.506Z,6.20
2023-05-10T01:26:43.134Z,6.43
2023-05-10T01:29:35.505Z,6.40
2023-05-10T01:32:19.229Z,6.28
2023-05-10T01:35:05.089Z,5.80
2023-05-10T01:37:49.562Z,6.38
2023-05-10T01:40:40.779Z,5.60
2023-05-10T01:43:15.450Z,5.65
2023-05-10T01:45:51.027Z,6.72
2023-05-10T01:48:20.004Z,6.00
2023-05-10T01:50:52.189Z,6.30
2023-05-10T01:53:21.203Z,6.43
2023-05-10T01:55:50.257Z,6.65
2023-05-10T01:58:35.133Z,6.53
2023-05-10T02:01:07.837Z,6.28
2023-05-10T02:04:05.751Z,5.70
2023-05-10T02:06:43.618Z,6.43
2023-05-10T02:09:15.729Z,6.13
2023-05-10T02:11:48.970Z,6.13
2023-05-10T02:14:17.269Z,6.43
2023-05-10T02:16:45.231Z,6.82
2023-05-10T02:19:20.237Z,5.87
2023-05-10T02:21:48.252Z,6.53
2023-05-10T02:24:23.552Z,5.90
2023-05-10T02:26:53.481Z,6.78
2023-05-10T02:29:22.388Z,6.18
2023-05-10T02:31:57.196Z,6.63
2023-05-10T02:34:37.492Z,5.55
2023-05-10T02:37:08.826Z,6.88
2023-05-10T02:39:47.110Z,6.57
2023-05-10T02:42:17.749Z,6.50
2023-05-10T02:44:54.266Z,6.60
2023-05-10T02:47:25.229Z,6.50
2023-05-10T02:49:58.449Z,6.55
2023-05-10T02:52:32.923Z,6.10
2023-05-10T02:55:09.378Z,6.20
2023-05-10T02:57:48.912Z,6.23
2023-05-10T03:00:23.868Z,6.07
2023-05-10T03:02:54.486Z,6.35
2023-05-10T03:05:22.393Z,6.20
2023-05-10T03:07:49.752Z,6.30
2023-05-10T03:10:21.481Z,5.97
2023-05-10T03:13:19.734Z,5.75
2023-05-10T03:15:52.653Z,5.60
2023-05-10T03:18:35.108Z,6.20
2023-05-10T03:21:15.702Z,5.05
2023-05-10T03:23:46.701Z,5.70
2023-05-10T03:26:59.955Z,6.00
2023-05-10T03:29:52.202Z,5.90
2023-05-10T03:33:00.236Z,6.07
2023-05-10T03:36:16.966Z,5.25
2023-05-10T03:39:23.491Z,5.20
2023-05-10T03:42:06.765Z,4.40
2023-05-10T03:45:05.076Z,4.93
2023-05-10T03:47:41.239Z,4.70
2023-05-10T03:50:13.115Z,4.90
2023-05-10T03:52:54.100Z,5.00
2023-05-10T03:55:33.363Z,4.70
2023-05-10T03:58:14.631Z,4.68
2023-05-10T04:01:04.984Z,4.10
2023-05-10T04:03:38.387Z,4.35
2023-05-10T04:06:20.321Z,4.60
2023-05-10T04:08:50.941Z,4.60
2023-05-10T04:11:37.796Z,4.20
2023-05-10T04:14:13.632Z,4.43
2023-05-10T04:17:05.776Z,4.35
2023-05-10T04:22:56.579Z,4.40
2023-05-10T04:25:29.137Z,4.85
2023-05-10T04:28:01.630Z,5.00
2023-05-10T04:30:36.266Z,4.43
2023-05-10T04:33:16.011Z,4.77
2023-05-10T04:35:47.374Z,4.57
2023-05-10T04:38:17.133Z,4.60
2023-05-10T04:41:01.350Z,4.60
2023-05-10T04:43:58.373Z,4.38
2023-05-10T04:46:37.214Z,4.90
2023-05-10T04:49:10.036Z,3.90
2023-05-10T04:54:43.031Z,3.08
2023-05-10T04:57:40.436Z,3.17
2023-05-10T05:00:27.345Z,3.00
2023-05-10T05:03:19.308Z,3.30
2023-05-10T05:08:32.924Z,3.20
2023-05-10T05:11:15.114Z,2.97
2023-05-10T05:13:50.160Z,2.83
2023-05-10T05:19:17.177Z,2.70
2023-05-10T05:22:27.847Z,2.75
2023-05-10T05:25:20.172Z,2.92
2023-05-10T05:27:58.005Z,2.57
2023-05-10T05:37:06.389Z,2.72
2023-05-10T05:39:34.523Z,2.58
2023-05-10T05:42:39.460Z,3.07
2023-05-10T05:45:46.030Z,3.20
2023-05-10T05:55:32.976Z,3.10
2023-05-10T05:58:28.716Z,3.10
2023-05-10T06:01:26.344Z,3.38
2023-05-10T06:05:06.094Z,3.63
2023-05-10T06:07:29.700Z,3.53
2023-05-10T06:13:25.473Z,3.60
2023-05-10T06:16:27.842Z,3.45
2023-05-10T06:19:51.973Z,3.58
2023-05-10T06:25:59.713Z,2.83
2023-05-10T06:28:49.206Z,2.60
2023-05-10T06:35:13.740Z,2.75
2023-05-10T06:37:53.459Z,3.00
2023-05-10T06:40:41.584Z,2.90
2023-05-10T06:44:10.381Z,2.80
2023-05-10T06:50:17.311Z,3.15
2023-05-10T06:57:10.779Z,3.17
2023-05-10T07:02:35.581Z,2.90
2023-05-10T07:08:45.937Z,2.58
2023-05-10T07:18:43.854Z,2.95
2023-05-10T07:28:22.541Z,2.60
2023-05-10T07:31:46.708Z,3.80
2023-05-10T07:35:01.294Z,2.47
2023-05-10T07:40:41.534Z,2.50
2023-05-10T07:43:47.754Z,2.97
2023-05-10T07:46:45.311Z,2.13
2023-05-10T07:49:42.697Z,2.60
2023-05-10T07:52:38.154Z,2.90
2023-05-10T07:55:31.658Z,2.67
2023-05-10T07:58:16.444Z,2.30
2023-05-10T08:04:52.565Z,2.20
2023-05-10T08:07:30.509Z,2.72
2023-05-10T08:09:58.222Z,2.38
2023-05-10T08:15:52.455Z,2.60
2023-05-10T08:24:23.395Z,2.17
2023-05-10T08:27:13.709Z,2.30
2023-05-10T08:30:21.559Z,2.10
2023-05-10T08:33:30.703Z,2.47
2023-05-10T08:43:05.436Z,2.42
2023-05-10T08:46:18.706Z,2.30
2023-05-10T08:52:38.426Z,2.35
2023-05-10T08:55:40.673Z,2.00
2023-05-10T08:59:12.522Z,2.15
2023-05-10T09:01:58.407Z,2.40
2023-05-10T09:05:12.631Z,2.15
2023-05-10T09:08:22.886Z,2.10
2023-05-10T09:17:56.243Z,2.13
2023-05-10T09:20:46.392Z,2.45
2023-05-10T09:23:26.415Z,2.50
2023-05-10T09:26:37.123Z,2.00
2023-05-10T09:33:39.276Z,2.07
2023-05-10T09:36:22.861Z,1.98
2023-05-10T09:39:13.097Z,2.30
2023-05-10T09:42:16.813Z,2.05
2023-05-10T09:51:23.734Z,1.88
2023-05-10T09:54:32.835Z,1.58
2023-05-10T10:00:51.797Z,2.15
2023-05-10T10:04:03.812Z,2.10
2023-05-10T10:10:24.746Z,2.58
2023-05-10T10:13:22.818Z,2.30
2023-05-10T10:19:10.878Z,2.33
2023-05-10T10:22:22.977Z,2.20
2023-05-10T10:25:06.791Z,2.05
2023-05-10T10:28:20.872Z,2.50
2023-05-10T10:31:53.842Z,2.17
2023-05-10T10:46:45.287Z,2.55
2023-05-10T10:52:55.861Z,2.00
2023-05-10T10:59:18.556Z,1.80
2023-05-10T11:01:55.097Z,2.55
2023-05-10T11:04:50.064Z,2.07
2023-05-10T11:08:10.502Z,4.03
2023-05-10T11:11:09.553Z,2.08
2023-05-10T11:14:11.469Z,1.65
2023-05-10T11:16:51.981Z,1.85
2023-05-10T11:26:39.985Z,2.03
2023-05-10T11:29:39.565Z,2.28
2023-05-10T11:38:09.429Z,4.55
2023-05-10T11:41:00.854Z,1.85
2023-05-10T11:46:38.479Z,2.05
2023-05-10T11:49:13.898Z,1.60
2023-05-10T11:52:12.670Z,1.58
2023-05-10T11:58:42.829Z,1.63
2023-05-10T12:04:25.020Z,3.53
2023-05-10T12:10:35.680Z,4.25
2023-05-10T12:16:50.976Z,4.45
2023-05-10T12:23:00.821Z,3.97
2023-05-10T12:26:04.217Z,4.20
2023-05-10T12:28:46.425Z,4.68
2023-05-10T12:35:20.824Z,4.07
2023-05-10T12:37:56.508Z,4.80
2023-05-10T12:40:56.918Z,4.55
2023-05-10T12:43:44.276Z,4.60
2023-05-10T12:46:34.161Z,4.45
2023-05-10T12:49:15.937Z,4.43
2023-05-10T12:51:55.474Z,4.20
2023-05-10T12:54:49.148Z,3.95
2023-05-10T13:00:29.055Z,4.65
2023-05-10T13:06:26.929Z,3.92
2023-05-10T13:09:19.064Z,3.97
2023-05-10T13:13:43.875Z,4.00
2023-05-10T13:15:44.434Z,3.05
2023-05-10T13:22:11.912Z,3.30
2023-05-10T13:25:23.184Z,3.42
2023-05-10T13:27:57.598Z,3.70
2023-05-10T13:30:28.201Z,4.00
2023-05-10T13:36:24.670Z,3.10
2023-05-10T13:39:08.613Z,3.10
2023-05-10T13:42:12.512Z,3.03
2023-05-10T13:45:04.612Z,3.90
2023-05-10T13:47:59.105Z,2.87
2023-05-10T13:50:53.503Z,2.80
2023-05-10T13:53:47.775Z,2.88
2023-05-10T13:56:37.652Z,2.15
2023-05-10T13:59:45.662Z,2.50
2023-05-10T14:02:27.142Z,2.30
2023-05-10T14:05:33.743Z,2.42
2023-05-10T14:08:32.927Z,2.95
2023-05-10T14:14:57.449Z,2.50
2023-05-10T14:18:34.577Z,2.30
2023-05-10T14:24:31.110Z,2.28
2023-05-10T14:27:22.766Z,2.30
2023-05-10T14:36:19.457Z,2.65
2023-05-10T14:38:59.424Z,2.80
2023-05-10T14:42:02.174Z,2.30
2023-05-10T14:44:52.668Z,2.20
2023-05-10T14:47:51.701Z,2.43
2023-05-10T14:54:17.924Z,2.28
2023-05-10T15:00:01.557Z,2.22
2023-05-10T15:02:58.230Z,2.70
2023-05-10T15:06:00.576Z,2.38
2023-05-10T15:08:40.261Z,2.75
2023-05-10T15:11:23.144Z,2.40
2023-05-10T15:14:02.105Z,2.42
2023-05-10T15:16:43.839Z,2.30
2023-05-10T15:22:53.918Z,2.40
2023-05-10T15:28:41.938Z,2.30
2023-05-10T15:31:44.574Z,2.30
2023-05-10T15:34:42.517Z,2.20
2023-05-10T15:37:19.561Z,2.42
2023-05-10T15:43:15.637Z,2.50
2023-05-10T15:46:04.162Z,2.80
2023-05-10T15:49:00.446Z,2.70
2023-05-10T15:51:41.722Z,2.47
2023-05-10T15:57:04.348Z,2.53
2023-05-10T16:02:26.575Z,2.30
2023-05-10T16:05:37.945Z,3.08
2023-05-10T16:14:07.117Z,2.30
2023-05-10T16:17:00.441Z,2.30
2023-05-10T16:19:57.437Z,2.33
2023-05-10T16:22:41.858Z,2.10
2023-05-10T16:25:19.687Z,2.08
2023-05-10T16:27:57.087Z,2.40
2023-05-10T16:30:38.377Z,2.28
2023-05-10T16:33:21.056Z,2.13
2023-05-10T16:36:19.117Z,2.10
2023-05-10T16:41:51.719Z,2.10
2023-05-10T16:44:31.080Z,1.85
2023-05-10T16:47:01.516Z,2.03
2023-05-10T16:49:29.269Z,1.95
2023-05-10T16:52:04.473Z,1.90
2023-05-10T16:54:51.999Z,2.40
2023-05-10T16:57:42.353Z,2.30
2023-05-10T17:03:33.974Z,2.20
2023-05-10T17:06:20.388Z,2.40
2023-05-10T17:12:06.713Z,3.30
2023-05-10T17:15:09.584Z,3.60
2023-05-10T17:18:04.229Z,2.92
2023-05-10T17:21:00.457Z,3.00
2023-05-10T17:24:05.961Z,2.60
2023-05-10T17:30:12.852Z,2.53
2023-05-10T17:32:52.456Z,2.50
2023-05-10T17:35:27.616Z,2.38
2023-05-10T17:38:18.771Z,2.53
2023-05-10T17:41:10.339Z,2.40
2023-05-10T17:43:41.148Z,2.35
2023-05-10T17:46:18.001Z,2.30
2023-05-10T17:48:48.696Z,2.40
2023-05-10T17:51:16.142Z,3.00
2023-05-10T17:53:43.766Z,2.47
2023-05-10T17:56:12.399Z,2.50
2023-05-10T17:58:40.021Z,2.58
2023-05-10T18:01:11.531Z,2.70
2023-05-10T18:03:39.029Z,2.53
2023-05-10T18:06:09.570Z,2.80
2023-05-10T18:08:37.921Z,4.63
2023-05-10T18:11:05.480Z,3.03
2023-05-10T18:13:32.828Z,3.60
2023-05-10T18:16:00.334Z,2.50
2023-05-10T18:18:27.701Z,2.75
2023-05-10T18:20:58.069Z,3.15
2023-05-10T18:23:25.762Z,4.55
2023-05-10T18:25:53.209Z,3.60
2023-05-10T18:28:20.661Z,3.80
2023-05-10T18:30:48.214Z,3.83
2023-05-10T18:33:15.686Z,4.40
2023-05-10T18:35:43.045Z,3.70
2023-05-10T18:38:10.406Z,2.97
2023-05-10T18:40:37.853Z,2.77
2023-05-10T18:43:05.266Z,3.10
2023-05-10T18:45:35.759Z,3.15
2023-05-10T18:48:03.308Z,2.95
2023-05-10T18:50:32.780Z,2.95
2023-05-10T18:53:00.131Z,2.40
2023-05-10T18:55:28.295Z,2.58
2023-05-10T18:57:56.873Z,3.00
2023-05-10T19:00:27.630Z,3.20
2023-05-10T19:02:55.070Z,3.40
2023-05-10T19:05:27.500Z,3.30
2023-05-10T19:07:54.771Z,3.30
2023-05-10T19:10:25.223Z,2.95
2023-05-10T19:12:52.567Z,2.90
2023-05-10T19:15:21.693Z,2.97
2023-05-10T19:17:50.734Z,3.07
2023-05-10T19:20:19.230Z,2.60
2023-05-10T19:23:02.006Z,2.63
2023-05-10T19:25:35.694Z,3.40
2023-05-10T19:28:03.161Z,3.00
2023-05-10T19:30:32.129Z,3.60
2023-05-10T19:32:59.549Z,3.80
2023-05-10T19:35:26.964Z,3.03
2023-05-10T19:37:54.448Z,2.95
2023-05-10T19:40:21.993Z,3.20
2023-05-10T19:42:53.462Z,3.00
2023-05-10T19:45:20.847Z,3.50
2023-05-10T19:47:48.498Z,4.40
2023-05-10T19:50:18.888Z,3.65
2023-05-10T19:52:46.424Z,4.40
2023-05-10T19:55:16.201Z,3.83
2023-05-10T19:57:46.983Z,4.03
2023-05-10T20:00:15.675Z,4.20
2023-05-10T20:02:43.028Z,4.60
2023-05-10T20:05:14.955Z,4.97
2023-05-10T20:07:42.593Z,5.67
2023-05-10T20:10:11.035Z,4.95
2023-05-10T20:12:38.621Z,5.07
2023-05-10T20:15:07.507Z,4.35
2023-05-10T20:17:37.974Z,3.88
2023-05-10T20:20:09.048Z,3.90
2023-05-10T20:22:37.304Z,3.65
2023-05-10T20:25:05.445Z,4.85
2023-05-10T20:27:33.351Z,4.65
2023-05-10T20:30:04.121Z,5.15
2023-05-10T20:32:32.792Z,4.60
2023-05-10T20:35:06.995Z,4.47
2023-05-10T20:37:47.705Z,4.40
2023-05-10T20:40:21.780Z,4.75
2023-05-10T20:42:52.937Z,4.10
2023-05-10T20:45:25.250Z,4.67
2023-05-10T20:47:54.500Z,5.43
2023-05-10T20:50:24.118Z,5.43
2023-05-10T20:52:52.644Z,5.88
2023-05-10T20:55:20.997Z,7.60
2023-05-10T20:57:51.857Z,7.93
2023-05-10T21:00:19.608Z,8.75
2023-05-10T21:02:48.643Z,8.10
2023-05-10T21:05:23.377Z,6.53
2023-05-10T21:07:54.714Z,6.65
2023-05-10T21:10:24.641Z,7.10
2023-05-10T21:12:52.413Z,7.47
2023-05-10T21:15:19.972Z,7.68
2023-05-10T21:17:47.482Z,7.88
2023-05-10T21:20:15.187Z,6.50
2023-05-10T21:22:42.759Z,6.93
2023-05-10T21:25:11.521Z,6.13
2023-05-10T21:27:40.752Z,5.45
2023-05-10T21:30:14.887Z,4.70
2023-05-10T21:32:42.913Z,4.45
2023-05-10T21:35:13.612Z,4.43
2023-05-10T21:37:41.116Z,4.13
2023-05-10T21:40:08.739Z,4.05
2023-05-10T21:42:36.205Z,4.40
2023-05-10T21:45:03.534Z,3.92
2023-05-10T21:47:33.288Z,4.03
2023-05-10T21:50:00.849Z,3.60
2023-05-10T21:52:31.116Z,3.42
2023-05-10T21:55:01.172Z,3.45
2023-05-10T21:57:33.514Z,3.25
2023-05-10T22:00:09.124Z,3.70
2023-05-10T22:02:36.849Z,3.47
2023-05-10T22:05:04.519Z,3.63
2023-05-10T22:07:32.566Z,3.10
2023-05-10T22:10:05.842Z,3.22
2023-05-10T22:12:34.630Z,3.07
2023-05-10T22:17:39.506Z,4.32
2023-05-10T22:20:08.432Z,3.22
2023-05-10T22:22:39.139Z,3.90
2023-05-10T22:25:07.886Z,3.57
2023-05-10T22:27:38.204Z,3.50
2023-05-10T22:30:05.917Z,4.50
2023-05-10T22:32:33.645Z,4.13
2023-05-10T22:35:01.145Z,3.78
2023-05-10T22:37:28.561Z,3.77
2023-05-10T22:39:56.986Z,5.07
2023-05-10T22:42:24.541Z,5.15
2023-05-10T22:44:55.365Z,5.13
2023-05-10T22:47:26.347Z,5.63
2023-05-10T22:49:55.881Z,6.20
2023-05-10T22:52:24.722Z,8.20
2023-05-10T22:54:52.233Z,6.70
2023-05-10T22:57:19.789Z,5.80
2023-05-10T22:59:48.555Z,6.10
2023-05-10T23:02:16.203Z,5.87
2023-05-10T23:04:44.455Z,5.05
2023-05-10T23:07:19.833Z,6.55
2023-05-10T23:09:49.728Z,4.90
2023-05-10T23:12:24.277Z,4.72
2023-05-10T23:15:01.970Z,4.17
2023-05-10T23:17:34.646Z,3.42
2023-05-10T23:20:02.496Z,3.80
2023-05-10T23:22:33.515Z,3.72
2023-05-10T23:25:03.840Z,3.40
2023-05-10T23:27:31.220Z,3.07
2023-05-10T23:29:58.989Z,2.70
2023-05-10T23:32:27.580Z,4.07
2023-05-10T23:34:55.138Z,2.80
2023-05-10T23:37:22.567Z,2.38
2023-05-10T23:39:49.857Z,3.10
2023-05-10T23:42:17.204Z,3.05
2023-05-10T23:44:44.867Z,3.20
2023-05-10T23:47:12.258Z,3.22
2023-05-10T23:49:43.848Z,2.67
2023-05-10T23:52:11.454Z,3.03
2023-05-10T23:54:46.012Z,3.08
2023-05-10T23:57:15.611Z,2.92
2023-05-10T23:59:42.939Z,3.53
